Time;durP1;ratioP1;P1;durP2;ratioP2;P2;SDS_P1;SDS_P2;PMS_P1;PMS_P2;Temp;Humidity;BMP_temperature;BMP_pressure;BME280_temperature;BME280_humidity;BME280_pressure;Samples;Min_cycle;Max_cycle;Signal;HPM_P1;HPM_P2
2023/07/22 00:00:22;;;;;;;15.40;8.53;;;;;;;11.79;100.00;100123.72;7395855;19;20408;-33
2023/07/22 00:02:52;;;;;;;16.30;8.77;;;;;;;11.79;100.00;100135.78;7369108;19;20427;-33
2023/07/22 00:05:25;;;;;;;14.97;8.97;;;;;;;11.75;100.00;100134.84;7396891;19;20464;-34
2023/07/22 00:07:55;;;;;;;17.23;9.47;;;;;;;11.75;100.00;100135.69;7371259;19;20461;-34
2023/07/22 00:10:24;;;;;;;51.57;25.80;;;;;;;11.72;100.00;100133.03;7396139;19;20409;-34
2023/07/22 00:12:54;;;;;;;37.53;17.23;;;;;;;11.69;100.00;100130.34;7372061;19;20423;-35
2023/07/22 00:15:25;;;;;;;20.27;11.60;;;;;;;11.70;100.00;100129.50;7397176;19;20449;-35
2023/07/22 00:17:55;;;;;;;15.27;9.63;;;;;;;11.67;100.00;100124.28;7370519;19;20423;-34
2023/07/22 00:20:28;;;;;;;14.73;8.67;;;;;;;11.66;100.00;100138.03;7394645;19;20947;-35
2023/07/22 00:22:59;;;;;;;14.60;9.60;;;;;;;11.66;100.00;100134.56;7370210;19;20419;-35
2023/07/22 00:25:28;;;;;;;16.17;8.67;;;;;;;11.65;100.00;100138.88;7394907;19;20456;-34
2023/07/22 00:27:58;;;;;;;16.60;9.70;;;;;;;11.68;100.00;100138.94;7370372;19;20831;-35
2023/07/22 00:30:28;;;;;;;19.60;11.67;;;;;;;11.71;100.00;100145.91;7394598;19;20407;-35
2023/07/22 00:32:57;;;;;;;20.00;10.27;;;;;;;11.67;100.00;100139.78;7370490;19;20423;-35
2023/07/22 00:35:30;;;;;;;22.17;10.93;;;;;;;11.71;100.00;100154.56;7394665;19;20438;-35
2023/07/22 00:37:59;;;;;;;31.70;15.63;;;;;;;11.69;100.00;100143.28;7371497;19;20499;-36
2023/07/22 00:40:30;;;;;;;26.80;13.30;;;;;;;11.72;100.00;100142.50;7394455;19;20410;-36
2023/07/22 00:42:59;;;;;;;21.10;11.20;;;;;;;11.71;100.00;100149.38;7369512;19;20429;-36
2023/07/22 00:45:29;;;;;;;20.63;11.23;;;;;;;11.72;100.00;100150.25;7394828;19;20856;-35
2023/07/22 00:47:59;;;;;;;23.13;12.80;;;;;;;11.73;100.00;100152.00;7369144;19;20434;-34
2023/07/22 00:50:31;;;;;;;21.03;10.60;;;;;;;11.68;100.00;100144.13;7393957;19;20437;-35
2023/07/22 00:53:00;;;;;;;23.23;10.47;;;;;;;11.67;100.00;100154.41;7369039;19;20795;-36
2023/07/22 00:55:30;;;;;;;20.97;12.50;;;;;;;11.67;100.00;100159.56;7393738;19;21039;-35
2023/07/22 00:58:00;;;;;;;22.87;12.37;;;;;;;11.70;100.00;100152.78;7368536;19;20427;-36
2023/07/22 01:00:29;;;;;;;19.57;9.20;;;;;;;11.66;100.00;100161.28;7394915;19;21153;-34
2023/07/22 01:02:59;;;;;;;15.53;9.00;;;;;;;11.58;100.00;100157.59;7368610;19;20419;-33
2023/07/22 01:05:33;;;;;;;19.77;10.37;;;;;;;11.56;100.00;100160.16;7394213;19;20456;-35
2023/07/22 01:08:02;;;;;;;16.23;9.70;;;;;;;11.54;100.00;100156.63;7367896;19;20499;-35
2023/07/22 01:10:32;;;;;;;24.20;11.67;;;;;;;11.59;100.00;100169.72;7394543;19;20967;-36
2023/07/22 01:13:01;;;;;;;17.53;8.97;;;;;;;11.57;100.00;100173.94;7368686;19;20510;-36
2023/07/22 01:15:31;;;;;;;21.80;11.90;;;;;;;11.57;100.00;100176.53;7393624;19;20423;-35
2023/07/22 01:18:01;;;;;;;18.37;9.50;;;;;;;11.47;100.00;100185.72;7367907;19;20483;-36
2023/07/22 01:20:34;;;;;;;28.50;14.63;;;;;;;11.47;100.00;100196.94;7393283;19;20403;-35
2023/07/22 01:23:06;;;;;;;30.47;15.77;;;;;;;11.47;100.00;100196.06;7367579;19;20444;-33
2023/07/22 01:25:36;;;;;;;18.40;10.20;;;;;;;11.44;100.00;100196.84;7395598;19;20446;-35
2023/07/22 01:28:06;;;;;;;17.30;9.30;;;;;;;11.42;100.00;100201.09;7368079;19;20790;-33
2023/07/22 01:30:35;;;;;;;26.07;13.10;;;;;;;11.46;100.00;100204.63;7394580;19;20407;-36
2023/07/22 01:33:05;;;;;;;28.37;11.77;;;;;;;11.44;100.00;100202.00;7367731;19;20427;-33
2023/07/22 01:35:35;;;;;;;30.63;12.80;;;;;;;11.47;100.00;100219.31;7393649;19;20467;-35
2023/07/22 01:38:08;;;;;;;29.73;13.80;;;;;;;11.46;100.00;100230.47;7367786;19;20502;-35
2023/07/22 01:40:38;;;;;;;19.37;9.93;;;;;;;11.39;100.00;100226.81;7393119;19;20467;-35
2023/07/22 01:43:07;;;;;;;21.43;10.00;;;;;;;11.39;100.00;100224.22;7368014;19;20772;-35
2023/07/22 01:45:37;;;;;;;19.60;11.80;;;;;;;11.39;100.00;100223.38;7393667;19;20531;-35
2023/07/22 01:48:07;;;;;;;21.00;11.07;;;;;;;11.40;100.00;100232.88;7367598;19;20439;-35
2023/07/22 01:50:37;;;;;;;19.40;10.43;;;;;;;11.35;100.00;100237.91;7392455;19;20990;-35
2023/07/22 01:53:10;;;;;;;23.40;10.50;;;;;;;11.31;100.00;100241.22;7358756;19;20434;-35
2023/07/22 01:55:39;;;;;;;25.33;13.77;;;;;;;11.29;100.00;100243.75;7393586;19;20518;-34
2023/07/22 01:58:09;;;;;;;18.37;10.40;;;;;;;11.28;100.00;100256.63;7367302;19;20419;-35
2023/07/22 02:00:38;;;;;;;26.17;11.30;;;;;;;11.21;100.00;100248.69;7391904;19;20942;-35
2023/07/22 02:03:08;;;;;;;21.37;10.53;;;;;;;11.19;100.00;100258.06;7365399;19;20447;-34
2023/07/22 02:05:38;;;;;;;21.70;11.63;;;;;;;11.21;100.00;100255.56;7393232;19;20444;-34
2023/07/22 02:08:10;;;;;;;18.53;10.40;;;;;;;11.15;100.00;100251.09;7367537;19;20580;-34
2023/07/22 02:10:40;;;;;;;25.40;11.80;;;;;;;11.17;100.00;100254.56;7391945;19;20491;-34
2023/07/22 02:13:10;;;;;;;21.97;9.83;;;;;;;11.09;100.00;100256.06;7365635;19;20514;-34
2023/07/22 02:15:39;;;;;;;22.70;9.60;;;;;;;11.06;100.00;100266.25;7392766;19;20474;-36
2023/07/22 02:18:09;;;;;;;22.10;11.27;;;;;;;11.10;100.00;100270.72;7366522;19;20498;-35
2023/07/22 02:20:38;;;;;;;19.23;9.47;;;;;;;11.07;100.00;100276.66;7391796;19;20467;-34
2023/07/22 02:23:11;;;;;;;20.70;9.17;;;;;;;11.14;100.00;100289.75;7365792;19;21011;-35
2023/07/22 02:25:40;;;;;;;18.50;10.33;;;;;;;11.09;100.00;100302.53;7393273;19;20450;-34
2023/07/22 02:28:10;;;;;;;19.93;10.17;;;;;;;11.09;100.00;100323.19;7367186;19;20444;-35
2023/07/22 02:30:40;;;;;;;17.67;9.00;;;;;;;11.10;100.00;100345.59;7391718;19;20943;-33
2023/07/22 02:33:10;;;;;;;21.07;9.80;;;;;;;11.11;100.00;100378.31;7366275;19;20514;-34
2023/07/22 02:35:40;;;;;;;17.03;8.60;;;;;;;11.11;100.00;100434.22;7392606;19;20456;-34
2023/07/22 02:38:14;;;;;;;18.20;8.57;;;;;;;11.14;100.00;100468.81;7366393;19;20431;-33
2023/07/22 02:40:44;;;;;;;16.93;8.20;;;;;;;11.11;100.00;100497.09;7391721;19;20410;-34
2023/07/22 02:43:13;;;;;;;19.10;7.60;;;;;;;11.09;100.00;100519.41;7366366;19;20431;-34
2023/07/22 02:45:44;;;;;;;19.43;8.60;;;;;;;11.08;100.00;100530.56;7392352;19;20999;-34
2023/07/22 02:48:14;;;;;;;23.30;9.50;;;;;;;11.07;100.00;100552.00;7366367;19;20480;-39
2023/07/22 02:50:44;;;;;;;16.57;8.37;;;;;;;11.06;100.00;100566.63;7393032;19;20414;-33
2023/07/22 02:53:16;;;;;;;22.30;8.30;;;;;;;11.00;100.00;100571.56;7366400;19;20523;-34
2023/07/22 02:55:46;;;;;;;19.13;7.90;;;;;;;10.91;100.00;100587.59;7390915;19;20435;-34
2023/07/22 02:58:16;;;;;;;17.13;8.37;;;;;;;11.00;100.00;100586.16;7366037;19;20438;-34
2023/07/22 03:00:45;;;;;;;15.50;8.20;;;;;;;10.97;100.00;100586.94;7389675;19;21027;-33
2023/07/22 03:03:15;;;;;;;15.60;7.50;;;;;;;10.96;100.00;100584.31;7365889;19;20427;-33
2023/07/22 03:05:45;;;;;;;16.07;8.50;;;;;;;11.00;100.00;100586.16;7391066;19;20443;-33
2023/07/22 03:08:17;;;;;;;19.60;8.97;;;;;;;10.92;100.00;100598.81;7365523;19;20427;-34
2023/07/22 03:10:48;;;;;;;26.30;11.90;;;;;;;10.94;100.00;100612.66;7391518;19;20407;-33
2023/07/22 03:13:18;;;;;;;17.83;8.63;;;;;;;10.96;100.00;100620.44;7360321;19;20435;-36
2023/07/22 03:15:47;;;;;;;18.47;8.10;;;;;;;10.86;100.00;100625.25;7388019;19;20458;-35
2023/07/22 03:18:17;;;;;;;16.87;8.87;;;;;;;10.83;100.00;100630.31;7362968;19;20443;-33
2023/07/22 03:20:46;;;;;;;18.47;8.20;;;;;;;10.81;100.00;100624.19;7387707;19;20399;-36
2023/07/22 03:23:19;;;;;;;15.07;8.23;;;;;;;10.84;100.00;100626.91;7363527;19;21188;-35
2023/07/22 03:25:49;;;;;;;21.47;7.47;;;;;;;10.86;100.00;100634.72;7395456;19;20453;-34
2023/07/22 03:28:19;;;;;;;19.13;8.00;;;;;;;10.86;100.00;100635.56;7370244;19;20435;-34
2023/07/22 03:30:49;;;;;;;12.60;7.83;;;;;;;10.86;100.00;100634.72;7397655;19;20420;-34
2023/07/22 03:33:18;;;;;;;13.90;8.10;;;;;;;10.84;100.00;100626.91;7368608;19;20430;-34
2023/07/22 03:35:48;;;;;;;16.87;8.33;;;;;;;10.85;100.00;100633.81;7394768;19;21263;-34
2023/07/22 03:38:20;;;;;;;25.63;8.80;;;;;;;10.87;100.00;100626.13;7370804;19;20982;-34
2023/07/22 03:40:50;;;;;;;15.83;7.87;;;;;;;10.85;100.00;100636.41;7393701;19;20412;-35
2023/07/22 03:43:20;;;;;;;20.20;7.90;;;;;;;10.86;100.00;100635.56;7369241;19;20427;-34
2023/07/22 03:45:47;;;;;;;15.40;8.37;;;;;;;10.89;100.00;100635.72;7393991;19;20432;-34
2023/07/22 03:48:16;;;;;;;27.43;9.43;;;;;;;10.85;100.00;100641.56;7368955;19;20435;-41
2023/07/22 03:50:46;;;;;;;16.50;8.20;;;;;;;10.78;100.00;100631.81;7394279;19;20422;-34
2023/07/22 03:53:15;;;;;;;18.20;7.97;;;;;;;10.75;100.00;100632.59;7366497;19;20444;-34
2023/07/22 03:55:47;;;;;;;18.33;8.00;;;;;;;10.77;100.00;100632.66;7393592;19;21062;-35
2023/07/22 03:58:17;;;;;;;17.80;8.63;;;;;;;10.73;100.00;100633.34;7369435;19;20431;-36
2023/07/22 04:00:51;;;;;;;16.83;8.30;;;;;;;10.79;100.00;100628.41;7394742;19;20826;-34
2023/07/22 04:03:21;;;;;;;17.27;7.70;;;;;;;10.76;100.00;100638.59;7371111;19;20815;-34
2023/07/22 04:05:56;;;;;;;17.53;7.70;;;;;;;10.76;100.00;100642.06;7395111;19;20439;-35
2023/07/22 04:08:26;;;;;;;24.07;8.97;;;;;;;10.82;100.00;100645.72;7373437;19;20467;-34
2023/07/22 04:10:56;;;;;;;19.43;9.10;;;;;;;10.85;100.00;100645.81;7398508;19;20780;-34
2023/07/22 04:13:27;;;;;;;19.80;7.87;;;;;;;10.85;100.00;100649.31;7370731;19;20419;-35
2023/07/22 04:15:57;;;;;;;21.03;8.43;;;;;;;10.82;100.00;100648.31;7395686;19;20518;-34
2023/07/22 04:18:26;;;;;;;24.87;11.13;;;;;;;10.88;100.00;100644.25;7375016;19;20456;-34
2023/07/22 04:20:58;;;;;;;15.83;8.17;;;;;;;10.89;100.00;100653.78;7395966;19;20818;-35
2023/07/22 04:23:28;;;;;;;21.17;8.43;;;;;;;10.85;100.00;100657.03;7373811;19;20431;-34
2023/07/22 04:26:00;;;;;;;19.50;7.90;;;;;;;10.92;100.00;100660.75;7397904;19;20438;-36
2023/07/22 04:28:30;;;;;;;18.97;9.07;;;;;;;10.89;100.00;100666.69;7373708;19;20445;-34
2023/07/22 04:31:00;;;;;;;16.93;7.30;;;;;;;10.96;100.00;100664.34;7397714;19;20998;-35
2023/07/22 04:33:30;;;;;;;18.40;8.43;;;;;;;11.04;100.00;100675.84;7371317;19;20446;-34
2023/07/22 04:36:01;;;;;;;22.67;9.70;;;;;;;11.12;100.00;100673.56;7395588;19;20518;-35
2023/07/22 04:38:31;;;;;;;16.37;7.50;;;;;;;11.19;100.00;100673.81;7373510;19;20526;-34
2023/07/22 04:41:05;;;;;;;17.13;8.13;;;;;;;11.23;100.00;100668.78;7395682;19;20408;-34
2023/07/22 04:43:35;;;;;;;19.40;8.00;;;;;;;11.15;100.00;100666.81;7372812;19;20762;-34
2023/07/22 04:46:05;;;;;;;16.90;8.00;;;;;;;11.03;100.00;100664.63;7372592;19;20841;-33
2023/07/22 04:48:36;;;;;;;13.20;6.97;;;;;;;11.10;100.00;100686.41;7392994;19;21344;-34
2023/07/22 04:51:06;;;;;;;21.43;9.57;;;;;;;11.18;100.00;100692.72;7372029;19;20424;-35
2023/07/22 04:53:36;;;;;;;21.17;7.97;;;;;;;11.21;100.00;100684.22;7393985;19;20420;-34
2023/07/22 04:56:08;;;;;;;20.87;7.50;;;;;;;11.28;100.00;100696.53;7372098;19;20468;-35
2023/07/22 04:58:38;;;;;;;20.13;7.93;;;;;;;11.29;100.00;100692.25;7392513;19;20467;-34
2023/07/22 05:01:08;;;;;;;12.77;7.00;;;;;;;11.41;100.00;100697.00;7370887;19;20416;-35
2023/07/22 05:03:38;;;;;;;17.63;7.50;;;;;;;11.36;100.00;100699.41;7394513;19;20407;-36
2023/07/22 05:06:08;;;;;;;14.57;7.30;;;;;;;11.44;100.00;100689.38;7371613;19;20478;-33
2023/07/22 05:08:38;;;;;;;15.77;8.70;;;;;;;11.48;100.00;100691.22;7393885;19;20404;-35
2023/07/22 05:11:10;;;;;;;13.37;6.97;;;;;;;11.46;100.00;100706.69;7373005;19;20410;-34
2023/07/22 05:13:40;;;;;;;12.40;7.00;;;;;;;11.59;100.00;100717.50;7392208;19;20423;-34
2023/07/22 05:16:09;;;;;;;17.10;8.60;;;;;;;11.51;100.00;100721.47;7370824;19;20439;-34
2023/07/22 05:18:39;;;;;;;13.97;7.30;;;;;;;11.47;100.00;100729.13;7392710;19;20499;-34
2023/07/22 05:21:09;;;;;;;13.77;7.13;;;;;;;11.56;100.00;100730.28;7370914;19;20411;-34
2023/07/22 05:23:38;;;;;;;14.63;7.97;;;;;;;11.60;100.00;100735.59;7394452;19;20470;-35
2023/07/22 05:26:11;;;;;;;16.73;8.83;;;;;;;11.64;100.00;100731.44;7371247;19;20458;-34
2023/07/22 05:28:40;;;;;;;13.97;7.10;;;;;;;11.70;100.00;100746.31;7392676;19;21005;-35
2023/07/22 05:31:10;;;;;;;13.00;7.20;;;;;;;11.74;100.00;100740.41;7369728;19;20951;-35
2023/07/22 05:33:39;;;;;;;20.17;7.23;;;;;;;11.73;100.00;100742.13;7391829;19;20939;-34
2023/07/22 05:36:09;;;;;;;17.23;7.30;;;;;;;11.77;100.00;100747.41;7370651;19;20537;-34
2023/07/22 05:38:39;;;;;;;14.80;6.40;;;;;;;11.69;100.00;100747.13;7391919;19;20470;-35
2023/07/22 05:41:11;;;;;;;18.60;7.80;;;;;;;11.70;100.00;100752.34;7371568;19;20777;-35
2023/07/22 05:43:40;;;;;;;17.47;7.07;;;;;;;11.81;100.00;100762.19;7391497;19;20419;-34
2023/07/22 05:46:10;;;;;;;15.17;7.77;;;;;;;11.85;100.00;100761.50;7368614;19;20439;-36
2023/07/22 05:48:39;;;;;;;17.17;7.57;;;;;;;11.79;100.00;100764.72;7391610;19;20424;-34
2023/07/22 05:51:09;;;;;;;11.70;6.90;;;;;;;11.97;100.00;100771.41;7370248;19;20424;-34
2023/07/22 05:53:39;;;;;;;15.83;6.00;;;;;;;12.04;100.00;100767.38;7391444;19;20764;-34
2023/07/22 05:56:11;;;;;;;14.37;6.40;;;;;;;12.08;100.00;100766.63;7369806;19;20455;-35
2023/07/22 05:58:41;;;;;;;15.10;6.53;;;;;;;12.12;100.00;100766.81;7391750;19;20487;-35
2023/07/22 06:01:11;;;;;;;15.20;6.20;;;;;;;12.18;100.00;100763.56;7368683;19;20416;-34
2023/07/22 06:03:42;;;;;;;9.13;5.60;;;;;;;12.19;100.00;100773.06;7391886;19;20418;-33
2023/07/22 06:06:12;;;;;;;12.23;6.80;;;;;;;12.43;100.00;100787.72;7370033;19;20980;-34
2023/07/22 06:08:42;;;;;;;14.67;6.50;;;;;;;12.43;100.00;100805.81;7391788;19;20403;-33
2023/07/22 06:11:14;;;;;;;11.90;5.07;;;;;;;12.51;100.00;100817.31;7369019;19;20962;-33
2023/07/22 06:13:44;;;;;;;15.47;9.60;;;;;;;12.65;100.00;100832.44;7390609;19;20946;-32
2023/07/22 06:16:13;;;;;;;14.73;5.23;;;;;;;12.74;100.00;100845.69;7368746;19;20455;-32
2023/07/22 06:18:43;;;;;;;10.17;4.80;;;;;;;12.72;100.00;100862.00;7390859;19;20415;-34
2023/07/22 06:21:13;;;;;;;10.17;4.07;;;;;;;12.86;100.00;100881.47;7366200;19;20407;-38
2023/07/22 06:23:42;;;;;;;11.70;5.70;;;;;;;12.91;100.00;100907.53;7390487;19;20483;-35
2023/07/22 06:26:15;;;;;;;8.90;4.50;;;;;;;13.03;100.00;100927.81;7369286;19;20518;-42
2023/07/22 06:28:44;;;;;;;9.93;5.87;;;;;;;13.09;100.00;100939.22;7391374;19;20771;-42
2023/07/22 06:31:14;;;;;;;8.80;4.50;;;;;;;13.26;100.00;100949.31;7367960;19;20411;-40
2023/07/22 06:33:44;;;;;;;8.70;4.47;;;;;;;13.33;100.00;100969.41;7390861;19;20403;-41
2023/07/22 06:36:13;;;;;;;10.20;4.73;;;;;;;13.41;100.00;100976.56;7369194;19;20447;-40
2023/07/22 06:38:43;;;;;;;11.70;4.90;;;;;;;13.44;100.00;100990.50;7390540;19;20407;-41
2023/07/22 06:41:15;;;;;;;9.80;4.13;;;;;;;13.43;100.00;101004.28;7368279;19;20774;-40
2023/07/22 06:43:45;;;;;;;9.23;4.27;;;;;;;13.52;100.00;101014.13;7390420;19;20399;-42
2023/07/22 06:46:14;;;;;;;11.40;4.90;;;;;;;13.51;100.00;101027.91;7369018;19;20439;-40
2023/07/22 06:48:44;;;;;;;8.90;4.10;;;;;;;13.62;100.00;101046.41;7392191;19;20429;-41
2023/07/22 06:51:13;;;;;;;8.57;3.67;;;;;;;13.71;100.00;101053.63;7364751;19;20415;-41
2023/07/22 06:53:43;;;;;;;8.20;4.33;;;;;;;13.82;100.00;101072.13;7391204;19;20404;-43
2023/07/22 06:56:15;;;;;;;7.00;3.60;;;;;;;13.85;100.00;101083.50;7368283;19;20435;-40
2023/07/22 06:58:45;;;;;;;24.20;11.17;;;;;;;13.73;100.00;101101.22;7394561;19;20776;-41
2023/07/22 07:01:14;;;;;;;18.30;7.40;;;;;;;13.86;100.00;101110.31;7372493;19;20415;-40
2023/07/22 07:03:44;;;;;;;9.43;4.70;;;;;;;13.86;100.00;101118.09;7397703;19;20415;-41
2023/07/22 07:06:14;;;;;;;10.13;4.43;;;;;;;13.83;100.00;101138.72;7374879;19;20476;-41
2023/07/22 07:08:44;;;;;;;9.87;5.07;;;;;;;14.02;100.00;101140.25;7395619;19;20399;-42
2023/07/22 07:11:16;;;;;;;7.80;4.13;;;;;;;14.15;100.00;101146.75;7373281;19;20403;-41
2023/07/22 07:13:46;;;;;;;7.37;3.60;;;;;;;14.13;100.00;101154.47;7395577;19;20740;-40
2023/07/22 07:16:27;;;;;;;6.87;2.70;;;;;;;14.23;100.00;101181.59;7373803;19;20435;-40
2023/07/22 07:18:57;;;;;;;9.13;3.17;;;;;;;14.42;100.00;101190.00;7396287;19;20399;-41
2023/07/22 07:21:27;;;;;;;38.97;18.60;;;;;;;14.31;100.00;101215.59;7371541;19;20419;-41
2023/07/22 07:23:56;;;;;;;7.63;3.07;;;;;;;14.56;100.00;101222.47;7399913;19;20401;-41
2023/07/22 07:26:29;;;;;;;10.07;4.57;;;;;;;14.51;100.00;101220.56;7374081;19;20427;-42
2023/07/22 07:28:58;;;;;;;5.37;2.60;;;;;;;14.76;100.00;101235.25;7396440;19;20426;-41
2023/07/22 07:31:28;;;;;;;6.60;2.60;;;;;;;14.84;100.00;101245.91;7372555;19;20844;-41
2023/07/22 07:34:01;;;;;;;5.63;1.97;;;;;;;14.74;100.00;101261.97;7396222;19;20416;-41
2023/07/22 07:36:30;;;;;;;7.33;2.17;;;;;;;14.95;100.00;101267.00;7373188;19;20433;-41
2023/07/22 07:39:00;;;;;;;11.23;5.10;;;;;;;14.88;100.00;101271.16;7396161;19;20428;-42
2023/07/22 07:41:32;;;;;;;7.67;3.57;;;;;;;14.81;100.00;101282.16;7371377;19;21402;-41
2023/07/22 07:44:02;;;;;;;14.43;5.50;;;;;;;15.10;100.00;101282.22;7398450;19;20414;-41
2023/07/22 07:46:32;;;;;;;9.23;3.30;;;;;;;15.23;100.00;101288.69;7371312;19;20430;-41
2023/07/22 07:49:03;;;;;;;7.63;3.00;;;;;;;14.88;100.00;101307.53;7396157;19;20884;-41
2023/07/22 07:51:34;;;;;;;2.90;1.60;;;;;;;14.87;100.00;101331.72;7371657;19;20430;-41
2023/07/22 07:54:04;;;;;;;3.57;1.60;;;;;;;15.04;100.00;101328.78;7395960;19;20399;-42
2023/07/22 07:56:36;;;;;;;15.10;5.50;;;;;;;14.84;100.00;101336.81;7370963;19;20430;-40
2023/07/22 07:59:08;;;;;;;7.53;3.37;;;;;;;14.75;100.00;101334.78;7396409;19;20483;-41
2023/07/22 08:01:41;;;;;;;5.40;1.80;;;;;;;15.06;100.00;101334.91;7370670;19;20444;-41
2023/07/22 08:04:11;;;;;;;4.73;2.20;;;;;;;15.08;100.00;101330.66;7395594;19;20403;-41
2023/07/22 08:06:42;;;;;;;8.23;3.60;;;;;;;15.07;100.00;101349.69;7371966;19;20431;-41
2023/07/22 08:09:18;;;;;;;5.53;1.57;;;;;;;15.06;100.00;101353.09;7393905;19;20409;-41
2023/07/22 08:11:50;;;;;;;19.83;7.03;;;;;;;14.98;100.00;101352.88;7371271;19;20422;-41
2023/07/22 08:14:20;;;;;;;12.97;4.27;;;;;;;14.95;100.00;101353.66;7396108;19;20400;-41
2023/07/22 08:16:49;;;;;;;7.50;2.77;;;;;;;15.10;100.00;101357.56;7371911;19;20514;-41
2023/07/22 08:19:19;;;;;;;14.80;6.83;;;;;;;15.32;100.00;101353.06;7392767;19;21014;-41
2023/07/22 08:21:48;;;;;;;4.27;1.40;;;;;;;15.55;100.00;101363.31;7369864;19;20427;-41
2023/07/22 08:24:18;;;;;;;10.53;4.80;;;;;;;15.53;100.00;101352.84;7395690;19;20411;-40
2023/07/22 08:26:50;;;;;;;6.10;1.63;;;;;;;15.80;100.00;101360.59;7371206;19;20559;-41
2023/07/22 08:29:20;;;;;;;2.97;1.50;;;;;;;15.87;100.00;101355.59;7395605;19;20407;-41
2023/07/22 08:31:50;;;;;;;4.70;1.70;;;;;;;15.78;100.00;101366.59;7371246;19;20432;-42
2023/07/22 08:34:19;;;;;;;16.63;3.50;;;;;;;15.69;100.00;101362.00;7394831;19;20407;-40
2023/07/22 08:36:49;;;;;;;4.73;1.60;;;;;;;15.51;100.00;101362.34;7371245;19;20427;-41
2023/07/22 08:39:18;;;;;;;5.17;2.40;;;;;;;15.50;100.00;101370.97;7395030;19;20501;-42
2023/07/22 08:41:52;;;;;;;5.77;2.60;;;;;;;15.64;100.00;101374.00;7369900;19;21018;-42
2023/07/22 08:44:23;;;;;;;32.03;12.90;;;;;;;15.75;100.00;101367.38;7394212;19;20408;-41
2023/07/22 08:46:56;;;;;;;3.63;1.60;;;;;;;15.89;100.00;101379.94;7371133;19;20460;-42
2023/07/22 08:49:27;;;;;;;19.20;8.10;;;;;;;15.62;100.00;101373.06;7397599;19;20450;-42
2023/07/22 08:51:57;;;;;;;5.57;2.33;;;;;;;15.64;100.00;101385.28;7370605;19;20423;-42
2023/07/22 08:54:27;;;;;;;4.17;1.17;;;;;;;15.44;100.00;101388.97;7393420;19;20459;-42
2023/07/22 08:56:59;;;;;;;11.03;5.50;;;;;;;15.64;100.00;101374.88;7371441;19;20826;-42
2023/07/22 08:59:29;;;;;;;4.03;1.50;;;;;;;16.09;100.00;101379.69;7394147;19;20931;-42
2023/07/22 09:01:58;;;;;;;9.47;2.23;;;;;;;15.88;100.00;101376.47;7369218;19;20415;-43
2023/07/22 09:04:28;;;;;;;9.83;4.00;;;;;;;15.74;100.00;101381.22;7394454;19;20939;-44
2023/07/22 09:06:58;;;;;;;12.93;5.90;;;;;;;16.06;100.00;101378.72;7365600;19;20794;-45
2023/07/22 09:09:28;;;;;;;5.80;2.70;;;;;;;15.96;100.00;101376.72;7395443;19;20407;-42
2023/07/22 09:12:00;;;;;;;6.27;2.50;;;;;;;16.08;100.00;101380.50;7369983;19;20444;-41
2023/07/22 09:14:30;;;;;;;14.53;5.90;;;;;;;16.15;100.00;101372.06;7395080;19;20407;-43
2023/07/22 09:17:06;;;;;;;8.37;4.00;;;;;;;16.21;100.00;101359.22;7370459;19;20533;-40
2023/07/22 09:19:36;;;;;;;4.20;1.70;;;;;;;16.32;100.00;101351.69;7394106;19;20430;-43
2023/07/22 09:22:05;;;;;;;8.90;3.63;;;;;;;16.43;100.00;101341.56;7365610;19;20451;-42
2023/07/22 09:24:35;;;;;;;5.67;2.10;;;;;;;16.62;100.00;101352.47;7393219;19;20408;-41
2023/07/22 09:27:08;;;;;;;4.10;1.90;;;;;;;16.53;100.00;101338.38;7370278;19;20419;-41
2023/07/22 09:29:39;;;;;;;5.70;1.83;;;;;;;16.77;100.00;101329.41;7393412;19;20419;-42
2023/07/22 09:32:09;;;;;;;6.40;1.67;;;;;;;16.49;100.00;101315.69;7370273;19;20790;-41
2023/07/22 09:34:39;;;;;;;2.90;1.37;;;;;;;16.79;100.00;101330.34;7393175;19;20762;-41
2023/07/22 09:37:08;;;;;;;3.00;1.10;;;;;;;16.78;100.00;101312.94;7369452;19;20499;-42
2023/07/22 09:39:38;;;;;;;3.70;1.33;;;;;;;16.73;100.00;101297.19;7391903;19;20410;-42
2023/07/22 09:42:10;;;;;;;6.13;2.67;;;;;;;16.87;100.00;101313.16;7368438;19;20433;-40
2023/07/22 09:44:40;;;;;;;3.90;1.53;;;;;;;16.70;100.00;101285.81;7392459;19;20407;-42
2023/07/22 09:47:10;;;;;;;3.00;1.20;;;;;;;16.72;100.00;101273.72;7369333;19;20435;-43
2023/07/22 09:49:43;;;;;;;4.77;1.27;;;;;;;16.79;100.00;101246.06;7393093;19;20403;-42
2023/07/22 09:52:16;;;;;;;3.80;1.27;;;;;;;17.06;100.00;101235.44;7369242;19;20502;-42
2023/07/22 09:54:50;;;;;;;4.10;1.30;;;;;;;17.06;100.00;101229.34;7391483;19;20411;-42
2023/07/22 09:57:23;;;;;;;3.03;1.03;;;;;;;16.80;100.00;101248.72;7369677;19;20526;-41
2023/07/22 09:59:54;;;;;;;3.90;1.60;;;;;;;16.94;100.00;101287.25;7393006;19;20420;-42
2023/07/22 10:02:24;;;;;;;3.57;1.67;;;;;;;17.09;100.00;101289.38;7368969;19;20415;-43
2023/07/22 10:04:54;;;;;;;5.03;1.60;;;;;;;17.30;100.00;101259.41;7392560;19;20943;-42
2023/07/22 10:07:24;;;;;;;5.17;1.20;;;;;;;17.65;100.00;101251.47;7369043;19;20506;-44
2023/07/22 10:09:57;;;;;;;4.10;1.30;;;;;;;17.49;100.00;101167.66;7394527;19;20487;-41
2023/07/22 10:12:29;;;;;;;3.13;1.30;;;;;;;17.55;100.00;101198.22;7368625;19;20534;-41
2023/07/22 10:14:59;;;;;;;4.13;1.37;;;;;;;17.11;100.00;101159.94;7392774;19;20411;-41
2023/07/22 10:17:30;;;;;;;4.07;1.40;;;;;;;16.93;100.00;101173.44;7369495;19;20437;-42
2023/07/22 10:20:00;;;;;;;3.73;1.40;;;;;;;17.07;100.00;101190.28;7392991;19;20436;-42
2023/07/22 10:22:30;;;;;;;3.60;1.20;;;;;;;17.11;100.00;101163.44;7368859;19;21035;-42
2023/07/22 10:25:01;;;;;;;4.47;1.40;;;;;;;17.09;100.00;101133.88;7392670;19;21018;-41
2023/07/22 10:27:33;;;;;;;2.97;1.30;;;;;;;16.92;100.00;101106.53;7369061;19;20431;-40
2023/07/22 10:30:03;;;;;;;3.87;1.30;;;;;;;16.96;100.00;101113.53;7392561;19;20410;-41
2023/07/22 10:32:36;;;;;;;2.83;1.20;;;;;;;16.74;100.00;101071.41;7366004;19;20442;-42
2023/07/22 10:35:12;;;;;;;3.57;1.37;;;;;;;16.83;100.00;101040.31;7392894;19;20409;-41
2023/07/22 10:37:43;;;;;;;3.33;1.50;;;;;;;17.04;100.00;101013.00;7365947;19;20436;-41
2023/07/22 10:40:21;;;;;;;4.40;1.60;;;;;;;17.13;100.00;101007.06;7391703;19;20482;-42
2023/07/22 10:42:57;;;;;;;4.80;1.20;;;;;;;17.10;100.00;100993.97;7367418;19;20509;-41
2023/07/22 10:45:28;;;;;;;3.70;1.60;;;;;;;17.76;100.00;100982.91;7392331;19;21267;-44
2023/07/22 10:48:05;;;;;;;3.67;1.67;;;;;;;17.89;100.00;100908.31;7367401;19;20966;-41
2023/07/22 10:50:46;;;;;;;5.13;1.70;;;;;;;17.50;100.00;100897.31;7390951;19;20407;-41
2023/07/22 10:53:17;;;;;;;4.30;2.20;;;;;;;17.95;100.00;100875.31;7368053;19;20431;-42
2023/07/22 10:56:08;;;;;;;9.63;2.27;;;;;;;17.62;100.00;100840.09;7391111;19;20503;-41
2023/07/22 10:58:59;;;;;;;12.50;3.87;;;;;;;17.95;100.00;100838.78;7368702;19;20439;-42
2023/07/22 11:01:39;;;;;;;4.83;1.70;;;;;;;18.35;100.00;100790.50;7366559;19;20511;-42
2023/07/22 11:04:16;;;;;;;4.90;1.87;;;;;;;18.22;100.00;100772.09;7390115;19;20403;-42
2023/07/22 11:06:56;;;;;;;6.73;1.87;;;;;;;18.19;100.00;100748.59;7367105;19;20438;-41
2023/07/22 11:09:42;;;;;;;3.13;1.67;;;;;;;18.02;100.00;100743.16;7391675;19;20479;-40
2023/07/22 11:12:15;;;;;;;4.87;1.93;;;;;;;17.55;100.00;100740.00;7365879;19;20447;-42
2023/07/22 11:14:52;;;;;;;5.57;2.47;;;;;;;17.80;100.00;100745.53;7390218;19;20425;-42
2023/07/22 11:17:30;;;;;;;5.20;2.30;;;;;;;18.07;100.00;100718.03;7366499;19;20434;-42
2023/07/22 11:20:01;;;;;;;4.97;2.17;;;;;;;17.94;100.00;100690.00;7390667;19;20763;-41
2023/07/22 11:22:31;;;;;;;3.20;1.20;;;;;;;17.92;100.00;100697.84;7366608;19;20411;-42
2023/07/22 11:25:03;;;;;;;4.37;1.97;;;;;;;17.97;100.00;100712.63;7390956;19;20471;-41
2023/07/22 11:27:33;;;;;;;7.00;2.20;;;;;;;17.87;100.00;100704.72;7367742;19;20498;-42